sensor_id;sensor_type;location;lat;lon;timestamp;temperature;humidity
5930;DHT22;2990;48.746;9.236;2022-12-10T00:01:11;0.50;99.90
5930;DHT22;2990;48.746;9.236;2022-12-10T00:03:38;0.50;99.90
5930;DHT22;2990;48.746;9.236;2022-12-10T00:06:06;0.50;99.90
5930;DHT22;2990;48.746;9.236;2022-12-10T00:08:33;0.50;99.90
5930;DHT22;2990;48.746;9.236;2022-12-10T00:11:03;0.50;99.90
5930;DHT22;2990;48.746;9.236;2022-12-10T00:13:29;0.50;99.90
5930;DHT22;2990;48.746;9.236;2022-12-10T00:15:55;0.50;99.90
5930;DHT22;2990;48.746;9.236;2022-12-10T00:18:22;0.40;99.90
5930;DHT22;2990;48.746;9.236;2022-12-10T00:20:47;0.50;99.90
5930;DHT22;2990;48.746;9.236;2022-12-10T00:23:13;0.50;99.90
5930;DHT22;2990;48.746;9.236;2022-12-10T00:25:38;0.50;99.90
5930;DHT22;2990;48.746;9.236;2022-12-10T00:28:04;0.50;99.90
5930;DHT22;2990;48.746;9.236;2022-12-10T00:30:29;0.50;99.90
5930;DHT22;2990;48.746;9.236;2022-12-10T00:32:55;0.50;99.90
5930;DHT22;2990;48.746;9.236;2022-12-10T00:35:21;0.50;99.90
5930;DHT22;2990;48.746;9.236;2022-12-10T00:37:46;0.50;99.90
5930;DHT22;2990;48.746;9.236;2022-12-10T00:40:13;0.50;99.90
5930;DHT22;2990;48.746;9.236;2022-12-10T00:42:38;0.50;99.90
5930;DHT22;2990;48.746;9.236;2022-12-10T00:45:04;0.60;99.90
5930;DHT22;2990;48.746;9.236;2022-12-10T00:47:30;0.50;99.90
5930;DHT22;2990;48.746;9.236;2022-12-10T00:49:56;0.50;99.90
5930;DHT22;2990;48.746;9.236;2022-12-10T00:52:21;0.60;99.90
5930;DHT22;2990;48.746;9.236;2022-12-10T00:54:47;0.60;99.90
5930;DHT22;2990;48.746;9.236;2022-12-10T00:57:14;0.60;99.90
5930;DHT22;2990;48.746;9.236;2022-12-10T00:59:41;0.60;99.90
5930;DHT22;2990;48.746;9.236;2022-12-10T01:02:06;0.60;99.90
5930;DHT22;2990;48.746;9.236;2022-12-10T01:04:32;0.60;99.90
5930;DHT22;2990;48.746;9.236;2022-12-10T01:06:58;0.50;99.90
5930;DHT22;2990;48.746;9.236;2022-12-10T01:09:27;0.60;99.90
5930;DHT22;2990;48.746;9.236;2022-12-10T01:11:55;0.50;99.90
5930;DHT22;2990;48.746;9.236;2022-12-10T01:14:24;0.50;99.90
5930;DHT22;2990;48.746;9.236;2022-12-10T01:16:53;0.50;99.90
5930;DHT22;2990;48.746;9.236;2022-12-10T01:19:19;0.50;99.90
5930;DHT22;2990;48.746;9.236;2022-12-10T01:21:49;0.40;99.90
5930;DHT22;2990;48.746;9.236;2022-12-10T01:24:15;0.50;99.90
5930;DHT22;2990;48.746;9.236;2022-12-10T01:26:40;0.50;99.90
5930;DHT22;2990;48.746;9.236;2022-12-10T01:29:06;0.50;99.90
5930;DHT22;2990;48.746;9.236;2022-12-10T01:31:35;0.50;99.90
5930;DHT22;2990;48.746;9.236;2022-12-10T01:34:03;0.50;99.90
5930;DHT22;2990;48.746;9.236;2022-12-10T01:36:33;0.50;99.90
5930;DHT22;2990;48.746;9.236;2022-12-10T01:39:00;0.50;99.90
5930;DHT22;2990;48.746;9.236;2022-12-10T01:41:31;0.50;99.90
5930;DHT22;2990;48.746;9.236;2022-12-10T01:44:02;0.50;99.90
5930;DHT22;2990;48.746;9.236;2022-12-10T01:46:30;0.60;99.90
5930;DHT22;2990;48.746;9.236;2022-12-10T01:48:59;0.60;99.90
5930;DHT22;2990;48.746;9.236;2022-12-10T01:51:28;0.60;99.90
5930;DHT22;2990;48.746;9.236;2022-12-10T01:53:54;0.50;99.90
5930;DHT22;2990;48.746;9.236;2022-12-10T01:56:20;0.50;99.90
5930;DHT22;2990;48.746;9.236;2022-12-10T01:58:48;0.50;99.90
5930;DHT22;2990;48.746;9.236;2022-12-10T02:01:26;0.60;99.90
5930;DHT22;2990;48.746;9.236;2022-12-10T02:04:03;0.60;99.90
5930;DHT22;2990;48.746;9.236;2022-12-10T02:12:18;0.50;99.90
5930;DHT22;2990;48.746;9.236;2022-12-10T02:15:05;0.50;99.90
5930;DHT22;2990;48.746;9.236;2022-12-10T02:17:38;0.50;99.90
5930;DHT22;2990;48.746;9.236;2022-12-10T02:22:59;0.40;99.90
5930;DHT22;2990;48.746;9.236;2022-12-10T02:25:49;0.40;99.90
5930;DHT22;2990;48.746;9.236;2022-12-10T02:28:36;0.40;99.90
5930;DHT22;2990;48.746;9.236;2022-12-10T02:31:04;0.40;99.90
5930;DHT22;2990;48.746;9.236;2022-12-10T02:33:31;0.40;99.90
5930;DHT22;2990;48.746;9.236;2022-12-10T02:35:57;0.30;99.90
5930;DHT22;2990;48.746;9.236;2022-12-10T02:38:30;0.40;99.90
5930;DHT22;2990;48.746;9.236;2022-12-10T02:41:15;0.40;99.90
5930;DHT22;2990;48.746;9.236;2022-12-10T02:43:45;0.30;99.90
5930;DHT22;2990;48.746;9.236;2022-12-10T02:46:11;0.30;99.90
5930;DHT22;2990;48.746;9.236;2022-12-10T02:48:37;0.30;99.90
5930;DHT22;2990;48.746;9.236;2022-12-10T02:51:05;0.40;99.90
5930;DHT22;2990;48.746;9.236;2022-12-10T02:53:30;0.40;99.90
5930;DHT22;2990;48.746;9.236;2022-12-10T03:04:01;0.30;99.90
5930;DHT22;2990;48.746;9.236;2022-12-10T03:06:42;0.30;99.90
5930;DHT22;2990;48.746;9.236;2022-12-10T03:09:13;0.30;99.90
5930;DHT22;2990;48.746;9.236;2022-12-10T03:11:42;0.30;99.90
5930;DHT22;2990;48.746;9.236;2022-12-10T03:14:22;0.30;99.90
5930;DHT22;2990;48.746;9.236;2022-12-10T03:16:54;0.30;99.90
5930;DHT22;2990;48.746;9.236;2022-12-10T03:19:24;0.30;99.90
5930;DHT22;2990;48.746;9.236;2022-12-10T03:21:52;0.30;99.90
5930;DHT22;2990;48.746;9.236;2022-12-10T03:24:19;0.30;99.90
5930;DHT22;2990;48.746;9.236;2022-12-10T03:26:48;0.40;99.90
5930;DHT22;2990;48.746;9.236;2022-12-10T03:29:37;0.40;99.90
5930;DHT22;2990;48.746;9.236;2022-12-10T03:32:04;0.40;99.90
5930;DHT22;2990;48.746;9.236;2022-12-10T03:34:31;0.40;99.90
5930;DHT22;2990;48.746;9.236;2022-12-10T03:36:57;0.40;99.90
5930;DHT22;2990;48.746;9.236;2022-12-10T03:39:25;0.30;99.90
5930;DHT22;2990;48.746;9.236;2022-12-10T03:41:51;0.30;99.90
5930;DHT22;2990;48.746;9.236;2022-12-10T03:44:37;0.30;99.90
5930;DHT22;2990;48.746;9.236;2022-12-10T03:47:05;0.40;99.90
5930;DHT22;2990;48.746;9.236;2022-12-10T03:49:33;0.30;99.90
5930;DHT22;2990;48.746;9.236;2022-12-10T03:51:59;0.30;99.90
5930;DHT22;2990;48.746;9.236;2022-12-10T03:54:24;0.40;99.90
5930;DHT22;2990;48.746;9.236;2022-12-10T03:56:50;0.30;99.90
5930;DHT22;2990;48.746;9.236;2022-12-10T03:59:16;0.30;99.90
5930;DHT22;2990;48.746;9.236;2022-12-10T04:01:41;0.30;99.90
5930;DHT22;2990;48.746;9.236;2022-12-10T04:04:08;0.30;99.90
5930;DHT22;2990;48.746;9.236;2022-12-10T04:06:34;0.20;99.90
5930;DHT22;2990;48.746;9.236;2022-12-10T04:08:59;0.20;99.90
5930;DHT22;2990;48.746;9.236;2022-12-10T04:11:25;0.30;99.90
5930;DHT22;2990;48.746;9.236;2022-12-10T04:13:51;0.30;99.90
5930;DHT22;2990;48.746;9.236;2022-12-10T04:16:36;0.20;99.90
5930;DHT22;2990;48.746;9.236;2022-12-10T04:19:11;0.20;99.90
5930;DHT22;2990;48.746;9.236;2022-12-10T04:21:38;0.20;99.90
5930;DHT22;2990;48.746;9.236;2022-12-10T04:24:25;0.20;99.90
5930;DHT22;2990;48.746;9.236;2022-12-10T04:29:48;0.20;99.90
5930;DHT22;2990;48.746;9.236;2022-12-10T04:32:15;0.20;99.90
5930;DHT22;2990;48.746;9.236;2022-12-10T04:34:40;0.20;99.90
5930;DHT22;2990;48.746;9.236;2022-12-10T04:37:06;0.20;99.90
5930;DHT22;2990;48.746;9.236;2022-12-10T04:39:32;0.20;99.90
5930;DHT22;2990;48.746;9.236;2022-12-10T04:41:59;0.20;99.90
5930;DHT22;2990;48.746;9.236;2022-12-10T04:44:25;0.20;99.90
5930;DHT22;2990;48.746;9.236;2022-12-10T04:46:51;0.20;99.90
5930;DHT22;2990;48.746;9.236;2022-12-10T04:49:17;0.20;99.90
5930;DHT22;2990;48.746;9.236;2022-12-10T04:51:46;0.20;99.90
5930;DHT22;2990;48.746;9.236;2022-12-10T04:54:12;0.20;99.90
5930;DHT22;2990;48.746;9.236;2022-12-10T04:56:38;0.30;99.90
5930;DHT22;2990;48.746;9.236;2022-12-10T04:59:08;0.20;99.90
5930;DHT22;2990;48.746;9.236;2022-12-10T05:01:36;0.20;99.90
5930;DHT22;2990;48.746;9.236;2022-12-10T05:04:07;0.30;99.90
5930;DHT22;2990;48.746;9.236;2022-12-10T05:06:43;0.30;99.90
5930;DHT22;2990;48.746;9.236;2022-12-10T05:09:13;0.30;99.90
5930;DHT22;2990;48.746;9.236;2022-12-10T05:11:40;0.30;99.90
5930;DHT22;2990;48.746;9.236;2022-12-10T05:14:10;0.30;99.90
5930;DHT22;2990;48.746;9.236;2022-12-10T05:16:36;0.30;99.90
5930;DHT22;2990;48.746;9.236;2022-12-10T05:19:04;0.30;99.90
5930;DHT22;2990;48.746;9.236;2022-12-10T05:21:31;0.30;99.90
5930;DHT22;2990;48.746;9.236;2022-12-10T05:24:16;0.20;99.90
5930;DHT22;2990;48.746;9.236;2022-12-10T05:26:42;0.20;99.90
5930;DHT22;2990;48.746;9.236;2022-12-10T05:29:08;0.30;99.90
5930;DHT22;2990;48.746;9.236;2022-12-10T05:31:45;0.20;99.90
5930;DHT22;2990;48.746;9.236;2022-12-10T05:34:11;0.20;99.90
5930;DHT22;2990;48.746;9.236;2022-12-10T05:36:37;0.30;99.90
5930;DHT22;2990;48.746;9.236;2022-12-10T05:39:03;0.20;99.90
5930;DHT22;2990;48.746;9.236;2022-12-10T05:41:31;0.20;99.90
5930;DHT22;2990;48.746;9.236;2022-12-10T05:43:59;0.20;99.90
5930;DHT22;2990;48.746;9.236;2022-12-10T05:46:30;0.20;99.90
5930;DHT22;2990;48.746;9.236;2022-12-10T05:48:57;0.20;99.90
5930;DHT22;2990;48.746;9.236;2022-12-10T05:51:26;0.10;99.90
5930;DHT22;2990;48.746;9.236;2022-12-10T05:53:53;0.10;99.90
5930;DHT22;2990;48.746;9.236;2022-12-10T05:56:21;0.10;99.90
5930;DHT22;2990;48.746;9.236;2022-12-10T05:58:51;0.10;99.90
5930;DHT22;2990;48.746;9.236;2022-12-10T06:01:23;0.10;99.90
5930;DHT22;2990;48.746;9.236;2022-12-10T06:03:49;0.10;99.90
5930;DHT22;2990;48.746;9.236;2022-12-10T06:06:20;0.00;99.90
5930;DHT22;2990;48.746;9.236;2022-12-10T06:08:46;0.00;99.90
5930;DHT22;2990;48.746;9.236;2022-12-10T06:11:12;0.00;99.90
5930;DHT22;2990;48.746;9.236;2022-12-10T06:13:38;0.00;99.90
5930;DHT22;2990;48.746;9.236;2022-12-10T06:16:08;-0.10;99.90
5930;DHT22;2990;48.746;9.236;2022-12-10T06:18:35;-0.10;99.90
5930;DHT22;2990;48.746;9.236;2022-12-10T06:21:04;-0.10;99.90
5930;DHT22;2990;48.746;9.236;2022-12-10T06:23:30;-0.10;99.90
5930;DHT22;2990;48.746;9.236;2022-12-10T06:25:56;-0.10;99.90
5930;DHT22;2990;48.746;9.236;2022-12-10T06:28:21;-0.10;99.90
5930;DHT22;2990;48.746;9.236;2022-12-10T06:30:47;-0.10;99.90
5930;DHT22;2990;48.746;9.236;2022-12-10T06:33:12;-0.10;99.90
5930;DHT22;2990;48.746;9.236;2022-12-10T06:35:38;-0.10;99.90
5930;DHT22;2990;48.746;9.236;2022-12-10T06:38:03;-0.20;99.90
5930;DHT22;2990;48.746;9.236;2022-12-10T06:40:30;-0.20;99.90
5930;DHT22;2990;48.746;9.236;2022-12-10T06:42:56;-0.20;99.90
5930;DHT22;2990;48.746;9.236;2022-12-10T06:45:22;-0.20;99.90
5930;DHT22;2990;48.746;9.236;2022-12-10T06:47:48;-0.20;99.90
5930;DHT22;2990;48.746;9.236;2022-12-10T06:50:14;-0.20;99.90
5930;DHT22;2990;48.746;9.236;2022-12-10T06:52:39;-0.20;99.90
5930;DHT22;2990;48.746;9.236;2022-12-10T06:55:05;-0.20;99.90
5930;DHT22;2990;48.746;9.236;2022-12-10T06:57:31;-0.20;99.90
5930;DHT22;2990;48.746;9.236;2022-12-10T06:59:56;-0.20;99.90
5930;DHT22;2990;48.746;9.236;2022-12-10T07:02:22;-0.20;99.90
5930;DHT22;2990;48.746;9.236;2022-12-10T07:04:47;-0.20;99.90
5930;DHT22;2990;48.746;9.236;2022-12-10T07:07:13;-0.20;99.90
5930;DHT22;2990;48.746;9.236;2022-12-10T07:09:39;-0.20;99.90
5930;DHT22;2990;48.746;9.236;2022-12-10T07:12:04;-0.20;99.90
5930;DHT22;2990;48.746;9.236;2022-12-10T07:14:30;-0.20;99.90
5930;DHT22;2990;48.746;9.236;2022-12-10T07:16:57;-0.20;99.90
5930;DHT22;2990;48.746;9.236;2022-12-10T07:19:22;-0.20;99.90
5930;DHT22;2990;48.746;9.236;2022-12-10T07:21:48;-0.20;99.90
5930;DHT22;2990;48.746;9.236;2022-12-10T07:24:17;-0.20;99.90
5930;DHT22;2990;48.746;9.236;2022-12-10T07:26:44;-0.20;99.90
5930;DHT22;2990;48.746;9.236;2022-12-10T07:29:16;-0.10;99.90
5930;DHT22;2990;48.746;9.236;2022-12-10T07:31:42;-0.10;99.90
5930;DHT22;2990;48.746;9.236;2022-12-10T07:34:09;-0.10;99.90
5930;DHT22;2990;48.746;9.236;2022-12-10T07:36:35;-0.10;99.90
5930;DHT22;2990;48.746;9.236;2022-12-10T07:39:00;-0.10;99.90
5930;DHT22;2990;48.746;9.236;2022-12-10T07:41:26;-0.10;99.90
5930;DHT22;2990;48.746;9.236;2022-12-10T07:43:52;-0.10;99.90
5930;DHT22;2990;48.746;9.236;2022-12-10T07:46:19;0.00;99.90
5930;DHT22;2990;48.746;9.236;2022-12-10T07:48:46;0.00;98.10
5930;DHT22;2990;48.746;9.236;2022-12-10T07:51:13;-0.10;69.60
5930;DHT22;2990;48.746;9.236;2022-12-10T07:53:39;0.00;85.00
5930;DHT22;2990;48.746;9.236;2022-12-10T07:56:05;0.00;72.50
5930;DHT22;2990;48.746;9.236;2022-12-10T07:58:33;0.00;66.80
5930;DHT22;2990;48.746;9.236;2022-12-10T08:01:06;0.10;65.20
5930;DHT22;2990;48.746;9.236;2022-12-10T08:03:32;0.10;46.80
5930;DHT22;2990;48.746;9.236;2022-12-10T08:08:28;0.10;33.00
5930;DHT22;2990;48.746;9.236;2022-12-10T08:10:54;0.20;33.80
5930;DHT22;2990;48.746;9.236;2022-12-10T08:13:19;0.20;7.50
5930;DHT22;2990;48.746;9.236;2022-12-10T08:15:45;0.10;6.20
5930;DHT22;2990;48.746;9.236;2022-12-10T08:18:10;0.20;22.40
5930;DHT22;2990;48.746;9.236;2022-12-10T08:20:36;0.20;3.70
5930;DHT22;2990;48.746;9.236;2022-12-10T08:23:01;0.30;1.00
5930;DHT22;2990;48.746;9.236;2022-12-10T08:25:27;0.30;1.00
5930;DHT22;2990;48.746;9.236;2022-12-10T08:27:53;0.30;1.00
5930;DHT22;2990;48.746;9.236;2022-12-10T08:30:18;0.30;1.00
5930;DHT22;2990;48.746;9.236;2022-12-10T08:32:44;0.40;1.00
5930;DHT22;2990;48.746;9.236;2022-12-10T08:35:11;0.40;1.00
5930;DHT22;2990;48.746;9.236;2022-12-10T08:37:41;0.40;1.00
5930;DHT22;2990;48.746;9.236;2022-12-10T08:40:06;0.40;1.00
5930;DHT22;2990;48.746;9.236;2022-12-10T08:42:32;0.40;1.00
5930;DHT22;2990;48.746;9.236;2022-12-10T08:44:58;0.30;1.00
5930;DHT22;2990;48.746;9.236;2022-12-10T08:47:23;0.30;1.00
5930;DHT22;2990;48.746;9.236;2022-12-10T08:49:49;0.30;1.00
5930;DHT22;2990;48.746;9.236;2022-12-10T08:52:15;0.40;1.00
5930;DHT22;2990;48.746;9.236;2022-12-10T08:54:40;0.40;1.00
5930;DHT22;2990;48.746;9.236;2022-12-10T08:57:06;0.40;1.00
5930;DHT22;2990;48.746;9.236;2022-12-10T08:59:32;0.40;1.00
5930;DHT22;2990;48.746;9.236;2022-12-10T09:01:58;0.40;1.00
5930;DHT22;2990;48.746;9.236;2022-12-10T09:04:24;0.40;1.00
5930;DHT22;2990;48.746;9.236;2022-12-10T09:06:49;0.40;1.00
5930;DHT22;2990;48.746;9.236;2022-12-10T09:09:16;0.50;1.00
5930;DHT22;2990;48.746;9.236;2022-12-10T09:11:41;0.50;1.00
5930;DHT22;2990;48.746;9.236;2022-12-10T09:14:07;0.50;1.00
5930;DHT22;2990;48.746;9.236;2022-12-10T09:16:36;0.60;1.00
5930;DHT22;2990;48.746;9.236;2022-12-10T09:19:03;0.70;1.00
5930;DHT22;2990;48.746;9.236;2022-12-10T09:21:29;0.60;1.00
5930;DHT22;2990;48.746;9.236;2022-12-10T09:23:57;0.60;1.00
5930;DHT22;2990;48.746;9.236;2022-12-10T09:26:25;0.60;1.00
5930;DHT22;2990;48.746;9.236;2022-12-10T09:28:54;0.60;1.00
5930;DHT22;2990;48.746;9.236;2022-12-10T09:31:22;0.60;1.00
5930;DHT22;2990;48.746;9.236;2022-12-10T09:33:49;0.60;1.00
5930;DHT22;2990;48.746;9.236;2022-12-10T09:36:16;0.60;1.00
5930;DHT22;2990;48.746;9.236;2022-12-10T09:38:44;0.60;1.00
5930;DHT22;2990;48.746;9.236;2022-12-10T09:51:55;0.70;1.00
5930;DHT22;2990;48.746;9.236;2022-12-10T09:54:23;0.60;1.00
5930;DHT22;2990;48.746;9.236;2022-12-10T09:56:51;0.70;1.00
5930;DHT22;2990;48.746;9.236;2022-12-10T10:05:03;0.70;1.00
5930;DHT22;2990;48.746;9.236;2022-12-10T10:07:45;0.70;1.00
5930;DHT22;2990;48.746;9.236;2022-12-10T10:10:22;0.70;1.00
5930;DHT22;2990;48.746;9.236;2022-12-10T10:15:43;0.80;1.00
5930;DHT22;2990;48.746;9.236;2022-12-10T10:20:37;0.70;1.00
5930;DHT22;2990;48.746;9.236;2022-12-10T10:23:03;0.80;1.00
5930;DHT22;2990;48.746;9.236;2022-12-10T10:25:29;0.80;1.00
5930;DHT22;2990;48.746;9.236;2022-12-10T10:27:55;0.90;1.00
5930;DHT22;2990;48.746;9.236;2022-12-10T10:30:22;1.00;1.00
5930;DHT22;2990;48.746;9.236;2022-12-10T10:32:52;1.00;99.90
5930;DHT22;2990;48.746;9.236;2022-12-10T10:35:23;0.90;99.90
5930;DHT22;2990;48.746;9.236;2022-12-10T10:37:51;0.90;99.90
5930;DHT22;2990;48.746;9.236;2022-12-10T10:42:54;0.90;99.90
5930;DHT22;2990;48.746;9.236;2022-12-10T10:45:42;1.00;1.00
5930;DHT22;2990;48.746;9.236;2022-12-10T10:48:25;1.10;99.90
5930;DHT22;2990;48.746;9.236;2022-12-10T10:51:15;1.20;99.90
5930;DHT22;2990;48.746;9.236;2022-12-10T10:53:50;1.30;99.90
5930;DHT22;2990;48.746;9.236;2022-12-10T10:56:41;1.30;1.00
5930;DHT22;2990;48.746;9.236;2022-12-10T11:01:52;1.30;99.90
5930;DHT22;2990;48.746;9.236;2022-12-10T11:04:51;1.30;99.90
5930;DHT22;2990;48.746;9.236;2022-12-10T11:07:40;1.30;1.00
5930;DHT22;2990;48.746;9.236;2022-12-10T11:10:23;1.20;1.00
5930;DHT22;2990;48.746;9.236;2022-12-10T11:13:07;1.10;1.00
5930;DHT22;2990;48.746;9.236;2022-12-10T11:15:38;1.10;99.90
5930;DHT22;2990;48.746;9.236;2022-12-10T11:21:06;1.10;1.00
5930;DHT22;2990;48.746;9.236;2022-12-10T11:23:38;1.10;1.00
5930;DHT22;2990;48.746;9.236;2022-12-10T11:26:11;1.20;7.40
5930;DHT22;2990;48.746;9.236;2022-12-10T11:37:21;1.20;99.90
5930;DHT22;2990;48.746;9.236;2022-12-10T11:40:03;1.30;99.90
5930;DHT22;2990;48.746;9.236;2022-12-10T11:57:17;1.30;1.00
5930;DHT22;2990;48.746;9.236;2022-12-10T12:02:33;1.30;99.90
5930;DHT22;2990;48.746;9.236;2022-12-10T12:10:59;1.50;1.00
5930;DHT22;2990;48.746;9.236;2022-12-10T12:13:35;1.50;1.00
5930;DHT22;2990;48.746;9.236;2022-12-10T12:16:15;1.50;1.00
5930;DHT22;2990;48.746;9.236;2022-12-10T12:21:15;1.40;1.00
5930;DHT22;2990;48.746;9.236;2022-12-10T12:26:27;1.40;97.30
5930;DHT22;2990;48.746;9.236;2022-12-10T12:31:45;1.40;1.00
5930;DHT22;2990;48.746;9.236;2022-12-10T12:34:26;1.30;1.00
5930;DHT22;2990;48.746;9.236;2022-12-10T12:36:55;1.30;1.00
5930;DHT22;2990;48.746;9.236;2022-12-10T12:40:00;1.40;99.90
5930;DHT22;2990;48.746;9.236;2022-12-10T12:42:38;1.40;99.90
5930;DHT22;2990;48.746;9.236;2022-12-10T12:52:50;1.40;99.90
5930;DHT22;2990;48.746;9.236;2022-12-10T12:55:25;1.30;14.10
5930;DHT22;2990;48.746;9.236;2022-12-10T13:00:58;1.30;1.00
5930;DHT22;2990;48.746;9.236;2022-12-10T13:03:38;1.40;1.00
5930;DHT22;2990;48.746;9.236;2022-12-10T13:06:13;1.40;1.00
5930;DHT22;2990;48.746;9.236;2022-12-10T13:11:36;1.50;1.00
5930;DHT22;2990;48.746;9.236;2022-12-10T13:19:24;1.50;99.90
5930;DHT22;2990;48.746;9.236;2022-12-10T13:24:19;1.40;16.00
5930;DHT22;2990;48.746;9.236;2022-12-10T13:27:18;1.40;1.00
5930;DHT22;2990;48.746;9.236;2022-12-10T13:40:36;1.10;1.00
5930;DHT22;2990;48.746;9.236;2022-12-10T13:43:38;1.10;99.90
5930;DHT22;2990;48.746;9.236;2022-12-10T13:48:56;1.10;1.00
5930;DHT22;2990;48.746;9.236;2022-12-10T13:56:57;0.90;1.00
5930;DHT22;2990;48.746;9.236;2022-12-10T13:59:38;0.90;99.90
5930;DHT22;2990;48.746;9.236;2022-12-10T14:02:25;0.80;1.00
5930;DHT22;2990;48.746;9.236;2022-12-10T14:07:30;0.80;99.90
5930;DHT22;2990;48.746;9.236;2022-12-10T14:09:58;0.70;1.00
5930;DHT22;2990;48.746;9.236;2022-12-10T14:12:31;0.60;92.30
5930;DHT22;2990;48.746;9.236;2022-12-10T14:15:07;0.60;99.90
5930;DHT22;2990;48.746;9.236;2022-12-10T14:17:40;0.60;1.00
5930;DHT22;2990;48.746;9.236;2022-12-10T14:20:08;0.60;1.00
5930;DHT22;2990;48.746;9.236;2022-12-10T14:22:52;0.50;1.00
5930;DHT22;2990;48.746;9.236;2022-12-10T14:25:22;0.50;1.00
5930;DHT22;2990;48.746;9.236;2022-12-10T14:27:49;0.40;1.00
5930;DHT22;2990;48.746;9.236;2022-12-10T14:30:23;0.40;1.00
5930;DHT22;2990;48.746;9.236;2022-12-10T14:32:51;0.40;1.00
5930;DHT22;2990;48.746;9.236;2022-12-10T14:35:23;0.40;1.00
5930;DHT22;2990;48.746;9.236;2022-12-10T14:37:52;0.40;1.00
5930;DHT22;2990;48.746;9.236;2022-12-10T14:40:39;0.40;1.00
5930;DHT22;2990;48.746;9.236;2022-12-10T14:43:18;0.40;1.00
5930;DHT22;2990;48.746;9.236;2022-12-10T14:45:53;0.40;1.00
5930;DHT22;2990;48.746;9.236;2022-12-10T14:48:21;0.30;1.00
5930;DHT22;2990;48.746;9.236;2022-12-10T14:50:48;0.30;1.00
5930;DHT22;2990;48.746;9.236;2022-12-10T14:53:17;0.20;1.00
5930;DHT22;2990;48.746;9.236;2022-12-10T14:55:45;0.20;1.00
5930;DHT22;2990;48.746;9.236;2022-12-10T14:58:23;0.20;1.00
5930;DHT22;2990;48.746;9.236;2022-12-10T15:00:50;0.20;1.00
5930;DHT22;2990;48.746;9.236;2022-12-10T15:03:27;0.20;1.00
5930;DHT22;2990;48.746;9.236;2022-12-10T15:05:56;0.20;1.00
5930;DHT22;2990;48.746;9.236;2022-12-10T15:08:24;0.10;1.00
5930;DHT22;2990;48.746;9.236;2022-12-10T15:10:54;0.20;1.00
5930;DHT22;2990;48.746;9.236;2022-12-10T15:15:53;0.20;1.00
5930;DHT22;2990;48.746;9.236;2022-12-10T15:18:41;0.10;1.00
5930;DHT22;2990;48.746;9.236;2022-12-10T15:21:12;0.00;1.00
5930;DHT22;2990;48.746;9.236;2022-12-10T15:23:39;0.00;1.00
5930;DHT22;2990;48.746;9.236;2022-12-10T15:26:22;0.00;1.00
5930;DHT22;2990;48.746;9.236;2022-12-10T15:28:51;0.00;1.00
5930;DHT22;2990;48.746;9.236;2022-12-10T15:34:01;0.00;1.00
5930;DHT22;2990;48.746;9.236;2022-12-10T15:36:51;0.00;1.00
5930;DHT22;2990;48.746;9.236;2022-12-10T15:39:29;0.00;1.00
5930;DHT22;2990;48.746;9.236;2022-12-10T15:42:00;0.00;1.00
5930;DHT22;2990;48.746;9.236;2022-12-10T15:47:04;-0.10;1.00
5930;DHT22;2990;48.746;9.236;2022-12-10T15:49:34;-0.10;1.00
5930;DHT22;2990;48.746;9.236;2022-12-10T15:52:00;-0.10;1.00
5930;DHT22;2990;48.746;9.236;2022-12-10T15:56:59;-0.10;1.00
5930;DHT22;2990;48.746;9.236;2022-12-10T15:59:24;0.00;1.00
5930;DHT22;2990;48.746;9.236;2022-12-10T16:01:50;-0.10;1.00
5930;DHT22;2990;48.746;9.236;2022-12-10T16:04:16;-0.10;1.00
5930;DHT22;2990;48.746;9.236;2022-12-10T16:06:41;-0.10;1.00
5930;DHT22;2990;48.746;9.236;2022-12-10T16:09:09;-0.20;1.00
5930;DHT22;2990;48.746;9.236;2022-12-10T16:11:35;-0.20;1.00
5930;DHT22;2990;48.746;9.236;2022-12-10T16:14:00;-0.10;1.00
5930;DHT22;2990;48.746;9.236;2022-12-10T16:16:29;-0.10;1.00
5930;DHT22;2990;48.746;9.236;2022-12-10T16:18:55;-0.10;1.00
5930;DHT22;2990;48.746;9.236;2022-12-10T16:21:20;-0.10;1.00
5930;DHT22;2990;48.746;9.236;2022-12-10T16:23:48;-0.10;1.00
5930;DHT22;2990;48.746;9.236;2022-12-10T16:26:14;-0.20;1.00
5930;DHT22;2990;48.746;9.236;2022-12-10T16:28:42;-0.20;1.00
5930;DHT22;2990;48.746;9.236;2022-12-10T16:31:12;-0.10;1.00
5930;DHT22;2990;48.746;9.236;2022-12-10T16:33:39;-0.20;1.00
5930;DHT22;2990;48.746;9.236;2022-12-10T16:36:04;-0.20;1.00
5930;DHT22;2990;48.746;9.236;2022-12-10T16:38:30;-0.20;1.00
5930;DHT22;2990;48.746;9.236;2022-12-10T16:41:00;-0.30;1.00
5930;DHT22;2990;48.746;9.236;2022-12-10T16:43:28;-0.30;1.00
5930;DHT22;2990;48.746;9.236;2022-12-10T16:45:54;-0.30;1.00
5930;DHT22;2990;48.746;9.236;2022-12-10T16:48:20;-0.20;99.90
5930;DHT22;2990;48.746;9.236;2022-12-10T16:50:50;-0.20;99.90
5930;DHT22;2990;48.746;9.236;2022-12-10T16:53:18;-0.20;99.90
5930;DHT22;2990;48.746;9.236;2022-12-10T16:55:46;-0.20;99.90
5930;DHT22;2990;48.746;9.236;2022-12-10T16:58:13;-0.30;99.90
5930;DHT22;2990;48.746;9.236;2022-12-10T17:00:48;-0.20;99.90
5930;DHT22;2990;48.746;9.236;2022-12-10T17:03:17;-0.20;99.90
5930;DHT22;2990;48.746;9.236;2022-12-10T17:05:51;-0.20;99.90
5930;DHT22;2990;48.746;9.236;2022-12-10T17:08:17;-0.20;99.90
5930;DHT22;2990;48.746;9.236;2022-12-10T17:10:44;-0.20;99.90
5930;DHT22;2990;48.746;9.236;2022-12-10T17:13:31;-0.20;99.90
5930;DHT22;2990;48.746;9.236;2022-12-10T17:15:57;-0.30;99.90
5930;DHT22;2990;48.746;9.236;2022-12-10T17:18:24;-0.30;99.90
5930;DHT22;2990;48.746;9.236;2022-12-10T17:20:50;-0.30;99.90
5930;DHT22;2990;48.746;9.236;2022-12-10T17:23:19;-0.30;1.00
5930;DHT22;2990;48.746;9.236;2022-12-10T17:25:47;-0.30;1.00
5930;DHT22;2990;48.746;9.236;2022-12-10T17:28:21;-0.30;1.00
5930;DHT22;2990;48.746;9.236;2022-12-10T17:30:48;-0.30;1.00
5930;DHT22;2990;48.746;9.236;2022-12-10T17:33:16;-0.40;1.00
5930;DHT22;2990;48.746;9.236;2022-12-10T17:35:43;-0.40;1.00
5930;DHT22;2990;48.746;9.236;2022-12-10T17:38:19;-0.40;1.00
5930;DHT22;2990;48.746;9.236;2022-12-10T17:40:45;-0.40;1.00
5930;DHT22;2990;48.746;9.236;2022-12-10T17:43:11;-0.50;1.00
5930;DHT22;2990;48.746;9.236;2022-12-10T17:45:41;-0.50;1.00
5930;DHT22;2990;48.746;9.236;2022-12-10T17:48:13;-0.50;1.00
5930;DHT22;2990;48.746;9.236;2022-12-10T17:50:39;-0.50;1.00
5930;DHT22;2990;48.746;9.236;2022-12-10T17:53:06;-0.40;1.00
5930;DHT22;2990;48.746;9.236;2022-12-10T17:55:36;-0.40;1.00
5930;DHT22;2990;48.746;9.236;2022-12-10T17:58:04;-0.40;1.00
5930;DHT22;2990;48.746;9.236;2022-12-10T18:00:35;-0.40;1.00
5930;DHT22;2990;48.746;9.236;2022-12-10T18:03:01;-0.50;1.00
5930;DHT22;2990;48.746;9.236;2022-12-10T18:05:28;-0.50;1.00
5930;DHT22;2990;48.746;9.236;2022-12-10T18:07:53;-0.50;1.00
5930;DHT22;2990;48.746;9.236;2022-12-10T18:10:22;-0.40;1.00
5930;DHT22;2990;48.746;9.236;2022-12-10T18:12:48;-0.40;1.00
5930;DHT22;2990;48.746;9.236;2022-12-10T18:15:22;-0.50;1.00
5930;DHT22;2990;48.746;9.236;2022-12-10T18:17:48;-0.50;1.00
5930;DHT22;2990;48.746;9.236;2022-12-10T18:20:29;-0.60;1.00
5930;DHT22;2990;48.746;9.236;2022-12-10T18:22:56;-0.60;1.00
5930;DHT22;2990;48.746;9.236;2022-12-10T18:25:26;-0.60;1.00
5930;DHT22;2990;48.746;9.236;2022-12-10T18:27:53;-0.70;1.00
5930;DHT22;2990;48.746;9.236;2022-12-10T18:30:22;-0.60;1.00
5930;DHT22;2990;48.746;9.236;2022-12-10T18:32:49;-0.70;1.00
5930;DHT22;2990;48.746;9.236;2022-12-10T18:35:15;-0.70;1.00
5930;DHT22;2990;48.746;9.236;2022-12-10T18:37:41;-0.70;1.00
5930;DHT22;2990;48.746;9.236;2022-12-10T18:40:12;-0.70;1.00
5930;DHT22;2990;48.746;9.236;2022-12-10T18:42:38;-0.70;1.00
5930;DHT22;2990;48.746;9.236;2022-12-10T18:45:04;-0.70;1.00
5930;DHT22;2990;48.746;9.236;2022-12-10T18:47:30;-0.70;1.00
5930;DHT22;2990;48.746;9.236;2022-12-10T18:49:56;-0.70;1.00
5930;DHT22;2990;48.746;9.236;2022-12-10T18:52:27;-0.70;1.00
5930;DHT22;2990;48.746;9.236;2022-12-10T18:54:53;-0.70;1.00
5930;DHT22;2990;48.746;9.236;2022-12-10T18:57:18;-0.70;1.00
5930;DHT22;2990;48.746;9.236;2022-12-10T18:59:44;-0.70;1.00